createdAt,value
2022-10-17T00:01:59.348Z,101693.13
2022-10-17T00:04:25.726Z,101688.50
2022-10-17T00:06:56.315Z,101697.75
2022-10-17T00:09:22.648Z,101698.56
2022-10-17T00:11:49.025Z,101696.69
2022-10-17T00:14:19.629Z,101691.47
2022-10-17T00:16:46.008Z,101689.03
2022-10-17T00:19:12.359Z,101676.50
2022-10-17T00:21:38.748Z,101680.31
2022-10-17T00:24:58.684Z,101681.41
2022-10-17T00:32:20.632Z,101672.91
2022-10-17T00:34:47.164Z,101663.66
2022-10-17T00:37:13.548Z,101662.03
2022-10-17T00:39:40.932Z,101665.03
2022-10-17T00:42:13.445Z,101665.28
2022-10-17T00:44:40.777Z,101670.47
2022-10-17T00:47:33.649Z,101662.31
2022-10-17T00:52:30.940Z,101662.88
2022-10-17T00:55:03.852Z,101650.34
2022-10-17T00:57:31.783Z,101656.88
2022-10-17T01:00:02.219Z,101653.31
2022-10-17T01:02:28.923Z,101656.88
2022-10-17T01:04:56.817Z,101657.13
2022-10-17T01:07:23.433Z,101660.13
2022-10-17T01:09:50.221Z,101663.41
2022-10-17T01:12:25.798Z,101650.03
2022-10-17T01:15:04.701Z,101650.88
2022-10-17T01:17:57.628Z,101638.34
2022-10-17T01:21:15.689Z,101639.41
2022-10-17T01:24:29.541Z,101633.97
2022-10-17T01:27:04.660Z,101632.88
2022-10-17T01:30:17.403Z,101638.59
2022-10-17T01:32:56.543Z,101624.97
2022-10-17T01:35:33.103Z,101634.22
2022-10-17T01:38:21.761Z,101627.97
2022-10-17T01:40:59.219Z,101635.06
2022-10-17T01:43:44.523Z,101631.78
2022-10-17T01:46:23.301Z,101636.38
2022-10-17T01:48:55.100Z,101632.59
2022-10-17T01:51:41.159Z,101622.53
2022-10-17T01:54:13.945Z,101620.88
2022-10-17T01:56:59.751Z,101623.34
2022-10-17T01:59:32.113Z,101617.88
2022-10-17T02:01:59.527Z,101608.91
2022-10-17T02:04:26.409Z,101599.66
2022-10-17T02:06:52.748Z,101587.94
2022-10-17T02:09:24.662Z,101581.69
2022-10-17T02:12:37.835Z,101582.25
2022-10-17T02:15:45.062Z,101579.78
2022-10-17T02:18:43.527Z,101574.31
2022-10-17T02:21:36.147Z,101583.88
2022-10-17T02:24:16.848Z,101577.59
2022-10-17T02:27:05.222Z,101573.00
2022-10-17T02:29:38.313Z,101567.53
2022-10-17T02:32:13.277Z,101572.44
2022-10-17T02:34:49.232Z,101574.63
2022-10-17T02:37:23.088Z,101573.28
2022-10-17T02:39:51.369Z,101574.66
2022-10-17T02:42:18.838Z,101570.84
2022-10-17T02:44:46.905Z,101568.38
2022-10-17T02:47:32.824Z,101557.25
2022-10-17T02:49:59.760Z,101559.44
2022-10-17T02:52:50.823Z,101561.06
2022-10-17T02:55:27.099Z,101565.69
2022-10-17T02:58:01.129Z,101572.78
2022-10-17T03:00:29.612Z,101575.25
2022-10-17T03:02:56.013Z,101570.59
2022-10-17T03:05:32.616Z,101571.44
2022-10-17T03:07:58.967Z,101580.13
2022-10-17T03:10:25.375Z,101578.78
2022-10-17T03:12:59.744Z,101574.16
2022-10-17T03:15:43.624Z,101573.88
2022-10-17T03:18:19.062Z,101575.78
2022-10-17T03:20:45.413Z,101570.34
2022-10-17T03:23:11.771Z,101575.81
2022-10-17T03:25:38.133Z,101574.19
2022-10-17T03:28:05.496Z,101570.13
2022-10-17T03:30:32.570Z,101572.31
2022-10-17T03:32:59.510Z,101572.03
2022-10-17T03:35:27.104Z,101575.28
2022-10-17T03:37:56.137Z,101581.28
2022-10-17T03:40:22.508Z,101583.47
2022-10-17T03:42:51.976Z,101574.75
2022-10-17T03:45:30.610Z,101571.78
2022-10-17T03:47:58.844Z,101582.38
2022-10-17T03:51:04.060Z,101598.19
2022-10-17T03:53:30.748Z,101591.13
2022-10-17T03:56:51.991Z,101590.56
2022-10-17T03:59:18.487Z,101589.19
2022-10-17T04:01:45.046Z,101584.81
2022-10-17T04:04:11.585Z,101586.75
2022-10-17T04:06:38.197Z,101577.75
2022-10-17T04:09:07.131Z,101576.94
2022-10-17T04:11:34.105Z,101571.47
2022-10-17T04:14:00.548Z,101575.31
2022-10-17T04:16:27.188Z,101584.56
2022-10-17T04:18:58.222Z,101584.56
2022-10-17T04:21:26.533Z,101584.03
2022-10-17T04:23:54.783Z,101591.66
2022-10-17T04:26:23.529Z,101602.03
2022-10-17T04:28:54.169Z,101597.13
2022-10-17T04:31:23.709Z,101609.09
2022-10-17T04:33:50.648Z,101590.56
2022-10-17T04:36:20.142Z,101596.81
2022-10-17T04:38:52.675Z,101594.66
2022-10-17T04:41:34.136Z,101599.84
2022-10-17T04:44:02.703Z,101599.56
2022-10-17T04:46:29.240Z,101607.47
2022-10-17T04:48:55.585Z,101615.38
2022-10-17T04:51:39.106Z,101617.84
2022-10-17T04:54:10.555Z,101626.28
2022-10-17T04:56:36.918Z,101626.28
2022-10-17T04:59:03.311Z,101623.28
2022-10-17T05:01:37.675Z,101616.44
2022-10-17T05:04:04.040Z,101626.00
2022-10-17T05:06:31.516Z,101620.81
2022-10-17T05:08:59.804Z,101626.56
2022-10-17T05:11:28.641Z,101626.56
2022-10-17T05:13:59.056Z,101630.09
2022-10-17T05:16:49.391Z,101632.56
2022-10-17T05:19:22.917Z,101630.63
2022-10-17T05:22:17.197Z,101626.56
2022-10-17T05:24:43.561Z,101627.09
2022-10-17T05:27:43.041Z,101625.16
2022-10-17T05:30:36.779Z,101624.91
2022-10-17T05:33:35.535Z,101629.81
2022-10-17T05:36:01.957Z,101645.09
2022-10-17T05:38:34.452Z,101637.44
2022-10-17T05:41:02.621Z,101641.78
2022-10-17T05:43:32.081Z,101644.50
2022-10-17T05:45:58.671Z,101650.50
2022-10-17T05:48:25.348Z,101657.59
2022-10-17T05:51:09.456Z,101651.59
2022-10-17T05:53:41.548Z,101639.34
2022-10-17T05:56:15.413Z,101639.88
2022-10-17T05:58:54.227Z,101651.59
2022-10-17T06:01:24.869Z,101636.88
2022-10-17T06:03:51.234Z,101631.41
2022-10-17T06:06:18.693Z,101636.88
2022-10-17T06:08:52.164Z,101634.69
2022-10-17T06:11:24.645Z,101648.88
2022-10-17T06:13:52.117Z,101638.78
2022-10-17T06:16:18.470Z,101654.88
2022-10-17T06:18:44.898Z,101653.78
2022-10-17T06:21:14.791Z,101639.88
2022-10-17T06:23:41.321Z,101642.84
2022-10-17T06:26:07.697Z,101647.22
2022-10-17T06:28:35.070Z,101649.94
2022-10-17T06:31:12.118Z,101667.41
2022-10-17T06:33:38.944Z,101667.94
2022-10-17T06:36:07.258Z,101680.50
2022-10-17T06:38:34.768Z,101684.06
2022-10-17T06:41:14.120Z,101683.25
2022-10-17T06:43:48.579Z,101679.16
2022-10-17T06:46:19.580Z,101678.88
2022-10-17T06:48:46.130Z,101688.69
2022-10-17T06:51:19.684Z,101686.25
2022-10-17T06:53:46.133Z,101688.69
2022-10-17T06:56:12.488Z,101701.25
2022-10-17T06:58:40.046Z,101709.97
2022-10-17T07:01:12.047Z,101705.09
2022-10-17T07:03:40.165Z,101708.66
2022-10-17T07:06:06.577Z,101710.28
2022-10-17T07:08:32.979Z,101712.72
2022-10-17T07:10:59.790Z,101709.72
2022-10-17T07:13:26.158Z,101716.81
2022-10-17T07:15:52.605Z,101718.47
2022-10-17T07:18:19.056Z,101723.63
2022-10-17T07:20:53.735Z,101724.19
2022-10-17T07:23:20.451Z,101719.56
2022-10-17T07:25:46.816Z,101725.81
2022-10-17T07:28:14.780Z,101722.81
2022-10-17T07:30:41.516Z,101716.53
2022-10-17T07:33:08.036Z,101718.16
2022-10-17T07:35:34.602Z,101710.50
2022-10-17T07:38:01.033Z,101717.59
2022-10-17T07:40:27.408Z,101730.97
2022-10-17T07:42:55.817Z,101737.81
2022-10-17T07:45:23.700Z,101731.25
2022-10-17T07:47:50.151Z,101726.59
2022-10-17T07:50:16.597Z,101749.28
2022-10-17T07:52:43.323Z,101749.28
2022-10-17T07:55:09.991Z,101754.75
2022-10-17T07:57:36.354Z,101776.03
2022-10-17T08:00:03.108Z,101816.19
2022-10-17T08:02:29.764Z,101846.53
2022-10-17T08:04:56.280Z,101860.19
2022-10-17T08:07:26.791Z,101875.19
2022-10-17T08:09:54.902Z,101880.66
2022-10-17T08:12:21.976Z,101877.13
2022-10-17T08:14:48.364Z,101880.38
2022-10-17T08:17:14.849Z,101890.22
2022-10-17T08:19:41.285Z,101894.59
2022-10-17T08:22:08.422Z,101897.88
2022-10-17T08:24:35.069Z,101874.94
2022-10-17T08:27:01.612Z,101865.63
2022-10-17T08:29:28.087Z,101860.16
2022-10-17T08:31:58.681Z,101866.19
2022-10-17T08:34:32.240Z,101865.09
2022-10-17T08:37:16.430Z,101873.81
2022-10-17T08:39:45.479Z,101879.84
2022-10-17T08:42:33.448Z,101888.56
2022-10-17T08:45:24.321Z,101919.72
2022-10-17T08:48:02.285Z,101928.47
2022-10-17T08:50:36.767Z,101934.47
2022-10-17T08:53:19.917Z,101953.88
2022-10-17T08:55:49.000Z,101959.63
2022-10-17T08:58:22.414Z,101956.06
2022-10-17T09:01:06.893Z,101933.94
2022-10-17T09:03:47.504Z,101923.81
2022-10-17T09:06:30.059Z,101904.41
2022-10-17T09:09:15.584Z,101889.66
2022-10-17T09:11:50.976Z,101878.72
2022-10-17T09:14:23.428Z,101858.50
2022-10-17T09:17:05.363Z,101853.81
2022-10-17T09:19:36.621Z,101860.13
2022-10-17T09:22:09.681Z,101866.13
2022-10-17T09:24:53.314Z,101865.56
2022-10-17T09:27:35.407Z,101873.75
2022-10-17T09:30:40.431Z,101884.13
2022-10-17T09:33:23.091Z,101909.56
2022-10-17T09:36:00.325Z,101919.66
2022-10-17T09:38:36.034Z,101933.34
2022-10-17T09:41:02.867Z,101942.38
2022-10-17T09:43:29.355Z,101931.16
2022-10-17T09:46:20.382Z,101926.22
2022-10-17T09:48:53.900Z,101899.97
2022-10-17T09:51:26.104Z,101882.50
2022-10-17T09:53:59.791Z,101888.50
2022-10-17T09:56:26.273Z,101892.06
2022-10-17T09:58:57.219Z,101898.06
2022-10-17T10:01:29.359Z,101893.41
2022-10-17T10:04:11.868Z,101896.69
2022-10-17T10:06:39.509Z,101904.63
2022-10-17T10:09:07.337Z,101927.59
2022-10-17T10:11:56.602Z,101936.03
2022-10-17T10:14:28.949Z,101932.22
2022-10-17T10:16:56.048Z,101944.25
2022-10-17T10:19:32.629Z,101947.53
2022-10-17T10:22:03.457Z,101961.19
2022-10-17T10:24:31.172Z,101974.31
2022-10-17T10:27:00.869Z,101991.28
2022-10-17T10:29:44.517Z,101994.84
2022-10-17T10:32:28.601Z,102001.13
2022-10-17T10:35:18.917Z,102006.59
2022-10-17T10:37:49.788Z,102003.84
2022-10-17T10:40:39.049Z,102005.78
2022-10-17T10:43:06.355Z,102014.25
2022-10-17T10:45:47.672Z,102006.59
2022-10-17T10:48:25.438Z,102012.91
2022-10-17T10:50:51.763Z,102022.44
2022-10-17T10:53:45.634Z,102020.25
2022-10-17T10:56:21.099Z,102009.84
2022-10-17T10:59:26.013Z,102019.72
2022-10-17T11:02:17.572Z,102030.66
2022-10-17T11:05:01.907Z,102029.56
2022-10-17T11:08:03.916Z,102031.75
2022-10-17T11:11:13.694Z,102037.53
2022-10-17T11:13:47.778Z,102045.16
2022-10-17T11:16:40.072Z,102043.25
2022-10-17T11:19:47.384Z,102034.75
2022-10-17T11:22:19.029Z,102042.69
2022-10-17T11:25:22.216Z,102057.72
2022-10-17T11:27:48.689Z,102052.25
2022-10-17T11:30:16.535Z,102064.03
2022-10-17T11:32:48.899Z,102062.38
2022-10-17T11:35:23.608Z,102073.34
2022-10-17T11:38:07.879Z,102076.88
2022-10-17T11:40:38.644Z,102081.25
2022-10-17T11:43:23.151Z,102094.13
2022-10-17T11:45:56.016Z,102087.81
2022-10-17T11:48:28.184Z,102083.75
2022-10-17T11:54:17.663Z,102098.50
2022-10-17T11:57:28.851Z,102099.06
2022-10-17T12:00:39.280Z,102094.13
2022-10-17T12:03:26.808Z,102084.84
2022-10-17T12:06:15.014Z,102090.56
2022-10-17T12:08:54.581Z,102083.72
2022-10-17T12:11:41.875Z,102090.84
2022-10-17T12:14:46.594Z,102085.09
2022-10-17T12:17:39.299Z,102086.47
2022-10-17T12:20:21.304Z,102087.25
2022-10-17T12:23:21.844Z,102091.94
2022-10-17T12:26:09.586Z,102090.84
2022-10-17T12:28:49.528Z,102097.41
2022-10-17T12:31:17.409Z,102100.13
2022-10-17T12:33:53.135Z,102101.50
2022-10-17T12:36:22.502Z,102110.53
2022-10-17T12:39:11.741Z,102105.31
2022-10-17T12:41:38.073Z,102099.84
2022-10-17T12:44:28.738Z,102114.06
2022-10-17T12:47:05.033Z,102112.44
2022-10-17T12:49:48.809Z,102114.91
2022-10-17T12:52:27.106Z,102116.00
2022-10-17T12:55:11.385Z,102125.31
2022-10-17T12:57:54.549Z,102131.88
2022-10-17T13:01:11.770Z,102123.69
2022-10-17T13:03:44.542Z,102132.16
2022-10-17T13:06:23.638Z,102134.06
2022-10-17T13:09:34.845Z,102130.50
2022-10-17T13:12:25.233Z,102137.91
2022-10-17T13:14:54.636Z,102143.94
2022-10-17T13:17:27.820Z,102146.13
2022-10-17T13:20:03.344Z,102147.75
2022-10-17T13:22:32.782Z,102158.69
2022-10-17T13:25:17.239Z,102158.69
2022-10-17T13:28:50.259Z,102160.34
2022-10-17T13:31:43.904Z,102168.56
2022-10-17T13:34:41.356Z,102173.75
2022-10-17T13:37:12.836Z,102192.63
2022-10-17T13:39:55.312Z,102193.72
2022-10-17T13:42:27.350Z,102189.91
2022-10-17T13:44:55.006Z,102193.19
2022-10-17T13:47:27.675Z,102203.59
2022-10-17T13:50:43.231Z,102204.13
2022-10-17T13:53:16.419Z,102210.16
2022-10-17T13:56:29.891Z,102221.09
2022-10-17T13:59:00.237Z,102221.09
2022-10-17T14:01:29.196Z,102226.03
2022-10-17T14:04:07.745Z,102224.94
2022-10-17T14:06:44.074Z,102226.03
2022-10-17T14:09:25.592Z,102226.84
2022-10-17T14:12:12.514Z,102223.00
2022-10-17T14:15:05.048Z,102224.09
2022-10-17T14:17:29.998Z,102221.38
2022-10-17T14:23:04.526Z,102220.00
2022-10-17T14:25:39.498Z,102223.84
2022-10-17T14:28:12.851Z,102205.78
2022-10-17T14:30:57.297Z,102219.19
2022-10-17T14:33:28.132Z,102210.72
2022-10-17T14:35:56.684Z,102213.16
2022-10-17T14:38:24.405Z,102210.16
2022-10-17T14:41:29.710Z,102218.38
2022-10-17T14:43:57.153Z,102229.03
2022-10-17T14:46:23.704Z,102223.00
2022-10-17T14:48:56.282Z,102214.53
2022-10-17T14:51:22.659Z,102223.56
2022-10-17T14:54:05.607Z,102226.03
2022-10-17T14:56:55.932Z,102224.09
2022-10-17T14:59:51.446Z,102229.88
2022-10-17T15:02:11.119Z,102225.47
2022-10-17T15:04:39.600Z,102224.66
2022-10-17T15:07:22.096Z,102240.81
2022-10-17T15:09:51.376Z,102257.78
2022-10-17T15:12:22.352Z,102259.16
2022-10-17T15:14:48.746Z,102255.84
2022-10-17T15:21:38.397Z,102257.78
2022-10-17T15:24:07.077Z,102266.81
2022-10-17T15:27:32.690Z,102268.19
2022-10-17T15:29:59.579Z,102268.44
2022-10-17T15:32:28.016Z,102264.91
2022-10-17T15:34:54.416Z,102266.00
2022-10-17T15:37:25.291Z,102275.56
2022-10-17T15:39:54.633Z,102279.13
2022-10-17T15:42:26.959Z,102284.06
2022-10-17T15:44:55.695Z,102291.19
2022-10-17T15:47:30.977Z,102294.16
2022-10-17T15:49:57.666Z,102303.19
2022-10-17T15:52:24.336Z,102298.28
2022-10-17T15:54:51.104Z,102308.66
2022-10-17T15:57:38.469Z,102310.31
2022-10-17T16:00:16.233Z,102303.72
2022-10-17T16:02:50.744Z,102311.66
2022-10-17T16:05:30.421Z,102317.09
2022-10-17T16:07:57.809Z,102312.97
2022-10-17T16:10:33.424Z,102313.50
2022-10-17T16:13:17.556Z,102309.41
2022-10-17T16:15:43.963Z,102320.59
2022-10-17T16:18:10.331Z,102328.53
2022-10-17T16:20:37.917Z,102339.47
2022-10-17T16:23:05.374Z,102338.06
2022-10-17T16:25:32.893Z,102341.88
2022-10-17T16:28:08.484Z,102345.16
2022-10-17T16:30:50.279Z,102350.06
2022-10-17T16:33:21.833Z,102345.13
2022-10-17T16:35:55.403Z,102345.66
2022-10-17T16:38:27.945Z,102348.66
2022-10-17T16:40:54.404Z,102347.28
2022-10-17T16:43:50.606Z,102358.19
2022-10-17T16:46:27.770Z,102358.19
2022-10-17T16:48:57.873Z,102363.09
2022-10-17T16:51:31.304Z,102362.53
2022-10-17T16:54:18.081Z,102363.09
2022-10-17T16:56:59.852Z,102354.34
2022-10-17T16:59:30.412Z,102357.59
2022-10-17T17:02:03.229Z,102367.97
2022-10-17T17:04:40.152Z,102368.78
2022-10-17T17:07:11.722Z,102375.59
2022-10-17T17:09:39.273Z,102365.44
2022-10-17T17:12:06.335Z,102367.38
2022-10-17T17:14:42.944Z,102374.50
2022-10-17T17:18:02.641Z,102372.00
2022-10-17T17:20:32.724Z,102370.06
2022-10-17T17:22:59.119Z,102376.63
2022-10-17T17:25:26.608Z,102378.53
2022-10-17T17:28:02.926Z,102387.56
2022-10-17T17:30:29.833Z,102385.63
2022-10-17T17:33:01.573Z,102383.19
2022-10-17T17:35:38.567Z,102393.53
2022-10-17T17:38:07.565Z,102387.56
2022-10-17T17:40:34.611Z,102383.69
2022-10-17T17:43:07.269Z,102392.16
2022-10-17T17:45:34.719Z,102404.44
2022-10-17T17:48:20.410Z,102406.84
2022-10-17T17:50:47.037Z,102416.97
2022-10-17T17:53:15.781Z,102419.72
2022-10-17T17:55:47.110Z,102410.94
2022-10-17T17:58:13.860Z,102408.78
2022-10-17T18:00:40.627Z,102408.22
2022-10-17T18:03:07.613Z,102413.91
2022-10-17T18:05:46.029Z,102413.34
2022-10-17T18:08:12.465Z,102427.84
2022-10-17T18:10:38.859Z,102423.72
2022-10-17T18:13:12.240Z,102432.19
2022-10-17T18:15:41.565Z,102427.53
2022-10-17T18:18:07.890Z,102424.00
2022-10-17T18:20:35.285Z,102426.72
2022-10-17T18:23:21.361Z,102430.53
2022-10-17T18:26:00.872Z,102435.44
2022-10-17T18:28:27.789Z,102447.44
2022-10-17T18:30:54.485Z,102451.84
2022-10-17T18:34:00.190Z,102450.19
2022-10-17T18:36:39.739Z,102453.72
2022-10-17T18:39:06.120Z,102452.91
2022-10-17T18:41:39.778Z,102444.16
2022-10-17T18:44:47.959Z,102455.09
2022-10-17T18:47:14.327Z,102452.06
2022-10-17T18:49:40.928Z,102451.50
2022-10-17T18:52:07.496Z,102452.34
2022-10-17T18:54:39.979Z,102459.16
2022-10-17T18:57:06.910Z,102465.72
2022-10-17T18:59:33.399Z,102464.88
2022-10-17T19:02:05.144Z,102470.84
2022-10-17T19:04:31.605Z,102465.41
2022-10-17T19:07:09.197Z,102469.22
2022-10-17T19:09:41.472Z,102461.28
2022-10-17T19:12:08.928Z,102470.56
2022-10-17T19:14:35.559Z,102474.63
2022-10-17T19:17:02.635Z,102477.84
2022-10-17T19:19:49.885Z,102481.63
2022-10-17T19:22:20.477Z,102482.16
2022-10-17T19:26:02.790Z,102483.25
2022-10-17T19:28:29.602Z,102487.03
2022-10-17T19:30:56.028Z,102477.22
2022-10-17T19:33:22.451Z,102488.13
2022-10-17T19:35:56.675Z,102486.47
2022-10-17T19:38:23.108Z,102483.19
2022-10-17T19:40:49.660Z,102486.41
2022-10-17T19:43:18.529Z,102475.78
2022-10-17T19:45:58.172Z,102480.97
2022-10-17T19:48:25.384Z,102481.22
2022-10-17T19:50:52.830Z,102478.75
2022-10-17T19:53:21.823Z,102487.44
2022-10-17T19:55:50.165Z,102483.06
2022-10-17T19:58:16.650Z,102488.53
2022-10-17T20:00:51.165Z,102481.41
2022-10-17T20:03:18.639Z,102489.88
2022-10-17T20:05:45.997Z,102495.34
2022-10-17T20:08:13.018Z,102501.59
2022-10-17T20:10:39.915Z,102499.94
2022-10-17T20:13:06.323Z,102506.50
2022-10-17T20:15:32.728Z,102502.13
2022-10-17T20:17:59.318Z,102503.75
2022-10-17T20:20:25.688Z,102512.22
2022-10-17T20:22:52.052Z,102522.31
2022-10-17T20:25:18.594Z,102514.69
2022-10-17T20:27:45.059Z,102522.06
2022-10-17T20:30:11.848Z,102523.94
2022-10-17T20:32:39.983Z,102528.59
2022-10-17T20:35:07.412Z,102534.88
2022-10-17T20:37:39.886Z,102533.22
2022-10-17T20:40:37.976Z,102549.59
2022-10-17T20:42:55.601Z,102544.13
2022-10-17T20:45:37.315Z,102543.06
2022-10-17T20:48:17.409Z,102543.06
2022-10-17T20:50:44.386Z,102551.25
2022-10-17T20:53:37.331Z,102555.06
2022-10-17T20:56:08.794Z,102565.97
2022-10-17T20:58:35.843Z,102571.44
2022-10-17T21:01:11.527Z,102581.28
2022-10-17T21:03:42.395Z,102571.44
2022-10-17T21:06:12.432Z,102584.00
2022-10-17T21:08:38.863Z,102586.16
2022-10-17T21:11:15.747Z,102593.78
2022-10-17T21:13:42.484Z,102590.47
2022-10-17T21:16:13.819Z,102591.56
2022-10-17T21:18:56.455Z,102590.97
2022-10-17T21:21:26.787Z,102601.09
2022-10-17T21:23:56.581Z,102609.28
2022-10-17T21:26:40.559Z,102602.16
2022-10-17T21:29:12.621Z,102595.63
2022-10-17T21:32:33.480Z,102594.56
2022-10-17T21:35:10.104Z,102600.25
2022-10-17T21:37:36.545Z,102597.22
2022-10-17T21:40:03.131Z,102592.00
2022-10-17T21:42:29.859Z,102596.06
2022-10-17T21:44:56.435Z,102589.22
2022-10-17T21:47:25.522Z,102596.25
2022-10-17T21:49:54.005Z,102594.03
2022-10-17T21:52:20.377Z,102598.63
2022-10-17T21:54:46.722Z,102589.06
2022-10-17T21:57:13.113Z,102587.41
2022-10-17T21:59:39.938Z,102599.41
2022-10-17T22:02:06.345Z,102598.81
2022-10-17T22:04:48.202Z,102603.13
2022-10-17T22:07:19.581Z,102604.44
2022-10-17T22:09:45.945Z,102609.09
2022-10-17T22:12:40.547Z,102612.31
2022-10-17T22:15:07.557Z,102615.03
2022-10-17T22:17:35.975Z,102612.81
2022-10-17T22:20:02.357Z,102613.03
2022-10-17T22:22:39.095Z,102617.69
2022-10-17T22:25:06.079Z,102620.66
2022-10-17T22:27:40.500Z,102619.84
2022-10-17T22:30:23.407Z,102620.06
2022-10-17T22:32:49.751Z,102618.69
2022-10-17T22:35:16.131Z,102622.47
2022-10-17T22:37:42.527Z,102621.91
2022-10-17T22:40:09.214Z,102631.16
2022-10-17T22:42:38.751Z,102621.56
2022-10-17T22:45:20.327Z,102621.81
2022-10-17T22:47:53.987Z,102622.88
2022-10-17T22:50:21.632Z,102627.75
2022-10-17T22:53:00.997Z,102631.81
2022-10-17T22:55:40.773Z,102625.28
2022-10-17T22:58:07.234Z,102628.25
2022-10-17T23:00:39.692Z,102636.69
2022-10-17T23:03:06.063Z,102633.13
2022-10-17T23:05:32.391Z,102635.28
2022-10-17T23:07:58.907Z,102624.94
2022-10-17T23:10:25.337Z,102632.53
2022-10-17T23:12:51.688Z,102635.28
2022-10-17T23:15:18.191Z,102630.09
2022-10-17T23:17:44.547Z,102638.50
2022-10-17T23:20:11.059Z,102636.03
2022-10-17T23:22:37.501Z,102638.97
2022-10-17T23:25:04.128Z,102636.50
2022-10-17T23:27:36.809Z,102633.22
2022-10-17T23:30:04.543Z,102638.88
2022-10-17T23:32:31.167Z,102637.50
2022-10-17T23:35:05.760Z,102645.41
2022-10-17T23:37:32.681Z,102636.44
2022-10-17T23:39:59.215Z,102636.66
2022-10-17T23:42:25.701Z,102635.00
2022-10-17T23:44:56.162Z,102639.88
2022-10-17T23:47:22.516Z,102639.88
2022-10-17T23:49:49.063Z,102639.38
2022-10-17T23:52:20.558Z,102637.72
2022-10-17T23:54:46.932Z,102632.53
2022-10-17T23:57:23.716Z,102636.56
2022-10-17T23:59:50.071Z,102637.63
